createdAt,value
2022-12-18T00:06:14.847Z,55.20
2022-12-18T00:11:11.005Z,54.93
2022-12-18T00:16:05.828Z,55.60
2022-12-18T00:21:02.459Z,55.93
2022-12-18T00:26:00.971Z,55.73
2022-12-18T00:31:03.190Z,56.97
2022-12-18T00:35:56.662Z,51.50
2022-12-18T00:47:22.914Z,55.43
2022-12-18T00:52:16.226Z,50.47
2022-12-18T00:57:33.043Z,55.07
2022-12-18T01:02:28.144Z,49.43
2022-12-18T01:07:22.267Z,56.73
2022-12-18T01:12:15.621Z,54.57
2022-12-18T01:17:43.254Z,50.13
2022-12-18T01:22:36.762Z,58.80
2022-12-18T01:27:30.357Z,58.57
2022-12-18T01:32:38.986Z,57.03
2022-12-18T01:37:33.866Z,57.03
2022-12-18T01:42:27.971Z,56.77
2022-12-18T01:47:27.249Z,57.97
2022-12-18T01:52:23.520Z,59.60
2022-12-18T01:57:18.697Z,58.53
2022-12-18T02:02:14.327Z,54.70
2022-12-18T02:07:19.018Z,55.73
2022-12-18T02:12:22.071Z,57.47
2022-12-18T02:17:23.196Z,53.97
2022-12-18T02:22:35.821Z,51.53
2022-12-18T02:27:34.384Z,55.57
2022-12-18T02:32:33.707Z,54.03
2022-12-18T02:37:30.348Z,51.47
2022-12-18T02:42:25.061Z,48.97
2022-12-18T02:47:24.577Z,48.97
2022-12-18T02:52:35.885Z,49.43
2022-12-18T02:57:38.952Z,45.20
2022-12-18T03:02:45.726Z,45.90
2022-12-18T03:07:47.446Z,47.37
2022-12-18T03:12:46.986Z,45.63
2022-12-18T03:17:47.724Z,48.43
2022-12-18T03:22:44.894Z,49.20
2022-12-18T03:27:46.149Z,53.27
2022-12-18T03:32:48.756Z,54.60
2022-12-18T03:37:42.267Z,50.10
2022-12-18T03:42:50.051Z,50.03
2022-12-18T03:48:01.328Z,54.30
2022-12-18T03:53:02.079Z,51.70
2022-12-18T03:57:56.725Z,57.27
2022-12-18T04:02:56.393Z,56.17
2022-12-18T04:07:53.539Z,52.67
2022-12-18T04:12:46.871Z,50.10
2022-12-18T04:17:44.609Z,52.63
2022-12-18T04:22:39.295Z,49.27
2022-12-18T04:27:32.614Z,48.00
2022-12-18T04:32:26.718Z,51.60
2022-12-18T04:37:20.080Z,42.83
2022-12-18T04:42:14.828Z,41.40
2022-12-18T04:47:08.476Z,40.83
2022-12-18T04:52:01.753Z,46.60
2022-12-18T04:56:55.141Z,43.50
2022-12-18T05:01:50.171Z,48.47
2022-12-18T05:06:43.620Z,45.70
2022-12-18T05:11:39.812Z,48.90
2022-12-18T05:16:33.158Z,47.37
2022-12-18T05:21:28.080Z,47.33
2022-12-18T05:26:21.626Z,50.07
2022-12-18T05:31:16.212Z,49.57
2022-12-18T05:36:12.390Z,50.83
2022-12-18T05:41:07.745Z,50.57
2022-12-18T05:46:06.163Z,57.10
2022-12-18T05:51:08.213Z,53.90
2022-12-18T05:56:03.906Z,56.40
2022-12-18T06:00:59.220Z,52.00
2022-12-18T06:05:52.556Z,49.23
2022-12-18T06:10:53.787Z,58.53
2022-12-18T06:15:47.119Z,55.83
2022-12-18T06:20:42.464Z,52.00
2022-12-18T06:25:35.736Z,52.67
2022-12-18T06:30:29.011Z,52.87
2022-12-18T06:35:22.448Z,56.00
2022-12-18T06:40:17.762Z,57.30
2022-12-18T06:45:12.496Z,51.70
2022-12-18T06:50:06.685Z,56.67
2022-12-18T06:55:00.274Z,52.30
2022-12-18T06:59:54.987Z,53.50
2022-12-18T07:04:50.559Z,49.77
2022-12-18T07:09:44.024Z,53.93
2022-12-18T07:14:37.308Z,56.43
2022-12-18T07:19:32.109Z,57.30
2022-12-18T07:24:25.706Z,49.83
2022-12-18T07:29:19.086Z,53.43
2022-12-18T07:34:13.604Z,53.87
2022-12-18T07:39:08.578Z,57.70
2022-12-18T07:44:01.891Z,57.23
2022-12-18T07:48:55.346Z,53.30
2022-12-18T07:53:52.427Z,60.17
2022-12-18T07:58:52.293Z,54.33
2022-12-18T08:03:45.618Z,54.87
2022-12-18T08:08:39.231Z,56.07
2022-12-18T08:13:32.843Z,51.60
2022-12-18T08:18:27.564Z,51.60
2022-12-18T08:23:20.994Z,52.03
2022-12-18T08:28:17.131Z,53.47
2022-12-18T08:33:10.461Z,51.33
2022-12-18T08:38:05.273Z,55.20
2022-12-18T08:43:16.159Z,52.43
2022-12-18T08:48:09.624Z,52.67
2022-12-18T08:53:05.105Z,52.73
2022-12-18T08:57:58.845Z,54.43
2022-12-18T09:02:52.416Z,46.80
2022-12-18T09:07:45.893Z,52.47
2022-12-18T09:12:41.233Z,54.60
2022-12-18T09:17:34.592Z,50.30
2022-12-18T09:22:27.902Z,52.70
2022-12-18T09:27:21.265Z,57.17
2022-12-18T09:32:22.033Z,51.07
2022-12-18T09:37:15.736Z,51.70
2022-12-18T09:42:18.671Z,49.50
2022-12-18T09:47:20.651Z,52.37
2022-12-18T09:52:22.482Z,49.53
2022-12-18T09:57:19.531Z,48.97
2022-12-18T11:53:30.122Z,41.87
2022-12-18T11:58:45.058Z,45.00
2022-12-18T12:04:39.656Z,44.27
2022-12-18T12:50:01.443Z,48.07
2022-12-18T12:54:55.691Z,42.50
2022-12-18T13:00:03.252Z,50.03
2022-12-18T13:05:07.227Z,46.27
2022-12-18T13:10:33.454Z,46.77
2022-12-18T13:21:13.400Z,49.33
2022-12-18T13:26:35.794Z,46.47
2022-12-18T13:32:02.305Z,46.03
2022-12-18T13:37:00.583Z,49.67
2022-12-18T13:42:43.885Z,51.97
2022-12-18T13:54:25.392Z,45.00
2022-12-18T13:59:24.664Z,44.10
2022-12-18T14:17:51.957Z,49.43
2022-12-18T14:22:48.654Z,50.87
2022-12-18T14:27:47.012Z,51.20
2022-12-18T14:32:40.332Z,50.80
2022-12-18T14:37:35.061Z,49.53
2022-12-18T14:42:30.361Z,52.87
2022-12-18T14:47:23.795Z,48.60
2022-12-18T14:52:29.051Z,45.70
2022-12-18T14:57:27.931Z,42.27
2022-12-18T15:02:25.618Z,50.03
2022-12-18T15:07:22.524Z,42.27
2022-12-18T15:12:37.425Z,46.83
2022-12-18T15:17:30.997Z,44.63
2022-12-18T15:22:29.634Z,48.37
2022-12-18T15:27:32.426Z,47.47
2022-12-18T15:32:25.771Z,47.33
2022-12-18T15:37:19.383Z,49.47
2022-12-18T15:42:30.189Z,45.97
2022-12-18T15:47:25.180Z,48.07
2022-12-18T15:52:27.088Z,44.17
2022-12-18T15:57:26.730Z,45.47
2022-12-18T16:02:23.786Z,49.80
2022-12-18T16:07:22.850Z,46.33
2022-12-18T16:12:22.964Z,50.43
2022-12-18T16:17:17.305Z,50.67
2022-12-18T16:22:23.523Z,46.33
2022-12-18T16:27:16.871Z,44.77
2022-12-18T16:32:16.924Z,49.77
2022-12-18T16:37:13.138Z,39.07
2022-12-18T16:42:15.504Z,44.77
2022-12-18T16:47:09.280Z,45.87
2022-12-18T16:52:05.037Z,44.90
2022-12-18T16:56:58.709Z,53.47
2022-12-18T17:01:53.512Z,45.63
2022-12-18T17:06:51.887Z,50.90
2022-12-18T17:11:45.789Z,50.37
2022-12-18T17:16:40.093Z,48.13
2022-12-18T17:21:35.128Z,50.80
2022-12-18T17:26:29.629Z,53.07
2022-12-18T18:04:16.517Z,52.90
2022-12-18T18:09:16.582Z,49.73
2022-12-18T18:14:16.797Z,53.47
2022-12-18T18:25:43.279Z,55.03
2022-12-18T18:38:19.222Z,54.13
2022-12-18T18:43:13.936Z,52.80
2022-12-18T19:07:42.260Z,55.53
2022-12-18T19:19:44.262Z,56.03
2022-12-18T20:17:15.876Z,59.13
2022-12-18T20:22:09.765Z,64.93
2022-12-18T20:33:37.098Z,56.60
2022-12-18T20:38:30.729Z,53.83
2022-12-18T20:43:28.296Z,59.83
2022-12-18T20:48:26.476Z,63.07
2022-12-18T20:53:21.503Z,59.53
2022-12-18T20:58:14.921Z,54.87
2022-12-18T21:03:08.356Z,62.23
2022-12-18T21:08:01.884Z,65.50
2022-12-18T21:45:50.920Z,62.34
2022-12-18T21:50:46.135Z,61.77
2022-12-18T22:02:15.750Z,63.43
2022-12-18T22:07:10.510Z,63.33
2022-12-18T22:18:36.391Z,63.50
2022-12-18T22:23:29.832Z,57.77
2022-12-18T22:28:37.039Z,63.83
2022-12-18T22:33:30.462Z,64.57
2022-12-18T22:38:26.713Z,60.70
2022-12-18T22:43:20.025Z,57.17
2022-12-18T22:48:13.336Z,58.67
2022-12-18T22:53:07.900Z,59.97
2022-12-18T22:58:02.531Z,60.43
2022-12-18T23:03:00.420Z,57.20
2022-12-18T23:07:54.364Z,64.27
2022-12-18T23:12:47.674Z,60.83
2022-12-18T23:17:42.564Z,54.77
2022-12-18T23:22:35.818Z,63.67
2022-12-18T23:27:29.046Z,64.57
2022-12-18T23:32:22.333Z,59.93
2022-12-18T23:37:29.965Z,65.50
2022-12-18T23:42:30.232Z,62.17
